sensor_id;sensor_type;location;lat;lon;timestamp;pressure;altitude;pressure_sealevel;temperature;humidity
62725;BME280;49026;52.600;4.694;2024-03-08T00:00:10;102031.78;;;2.35;98.24
62725;BME280;49026;52.600;4.694;2024-03-08T00:02:38;102019.63;;;2.31;99.60
62725;BME280;49026;52.600;4.694;2024-03-08T00:05:05;102015.28;;;2.30;99.79
62725;BME280;49026;52.600;4.694;2024-03-08T00:07:30;102014.41;;;2.28;99.32
62725;BME280;49026;52.600;4.694;2024-03-08T00:09:55;102010.06;;;2.27;98.83
62725;BME280;49026;52.600;4.694;2024-03-08T00:12:23;102010.91;;;2.24;100.00
62725;BME280;49026;52.600;4.694;2024-03-08T00:14:51;102006.59;;;2.25;99.75
62725;BME280;49026;52.600;4.694;2024-03-08T00:17:16;101996.19;;;2.23;99.43
62725;BME280;49026;52.600;4.694;2024-03-08T00:19:43;102001.34;;;2.21;99.12
62725;BME280;49026;52.600;4.694;2024-03-08T00:22:09;102002.19;;;2.20;99.17
62725;BME280;49026;52.600;4.694;2024-03-08T00:24:36;101997.00;;;2.19;98.52
62725;BME280;49026;52.600;4.694;2024-03-08T00:27:02;101997.81;;;2.16;99.07
62725;BME280;49026;52.600;4.694;2024-03-08T00:29:29;101997.78;;;2.13;98.90
62725;BME280;49026;52.600;4.694;2024-03-08T00:31:57;101989.03;;;2.07;98.49
62725;BME280;49026;52.600;4.694;2024-03-08T00:34:25;101993.41;;;2.09;98.70
62725;BME280;49026;52.600;4.694;2024-03-08T00:36:50;101984.72;;;2.07;99.52
62725;BME280;49026;52.600;4.694;2024-03-08T00:39:20;101970.94;;;2.10;99.53
62725;BME280;49026;52.600;4.694;2024-03-08T00:41:50;101983.03;;;2.08;99.39
62725;BME280;49026;52.600;4.694;2024-03-08T00:44:16;101987.31;;;2.07;99.30
62725;BME280;49026;52.600;4.694;2024-03-08T00:46:41;101974.41;;;2.10;98.67
62725;BME280;49026;52.600;4.694;2024-03-08T00:49:07;101984.75;;;2.09;98.36
62725;BME280;49026;52.600;4.694;2024-03-08T00:51:33;101978.63;;;2.03;98.33
62725;BME280;49026;52.600;4.694;2024-03-08T00:54:01;101962.25;;;2.06;99.37
62725;BME280;49026;52.600;4.694;2024-03-08T00:56:26;101970.09;;;2.09;99.23
62725;BME280;49026;52.600;4.694;2024-03-08T00:58:51;101968.31;;;2.08;97.98
62725;BME280;49026;52.600;4.694;2024-03-08T01:01:19;101964.00;;;2.06;96.60
62725;BME280;49026;52.600;4.694;2024-03-08T01:03:44;101961.28;;;1.98;97.64
62725;BME280;49026;52.600;4.694;2024-03-08T01:06:14;101955.25;;;1.99;96.46
62725;BME280;49026;52.600;4.694;2024-03-08T01:08:41;101961.22;;;1.93;97.05
62725;BME280;49026;52.600;4.694;2024-03-08T01:11:08;101948.28;;;1.95;97.56
62725;BME280;49026;52.600;4.694;2024-03-08T01:13:34;101952.56;;;1.93;96.31
62725;BME280;49026;52.600;4.694;2024-03-08T01:15:59;101953.41;;;1.90;97.04
62725;BME280;49026;52.600;4.694;2024-03-08T01:18:27;101944.81;;;1.93;96.96
62725;BME280;49026;52.600;4.694;2024-03-08T01:20:52;101940.41;;;1.89;98.37
62725;BME280;49026;52.600;4.694;2024-03-08T01:23:20;101933.56;;;1.91;98.36
62725;BME280;49026;52.600;4.694;2024-03-08T01:25:45;101926.56;;;1.87;96.53
62725;BME280;49026;52.600;4.694;2024-03-08T01:28:10;101922.22;;;1.84;98.99
62725;BME280;49026;52.600;4.694;2024-03-08T01:30:38;101911.00;;;1.87;98.09
62725;BME280;49026;52.600;4.694;2024-03-08T01:33:04;101914.47;;;1.85;99.27
62725;BME280;49026;52.600;4.694;2024-03-08T01:35:32;101914.50;;;1.89;98.47
62725;BME280;49026;52.600;4.694;2024-03-08T01:37:57;101906.72;;;1.89;97.18
62725;BME280;49026;52.600;4.694;2024-03-08T01:40:22;101906.75;;;1.92;96.38
62725;BME280;49026;52.600;4.694;2024-03-08T01:42:47;101897.22;;;1.88;95.72
62725;BME280;49026;52.600;4.694;2024-03-08T01:45:15;101892.03;;;1.88;96.48
62725;BME280;49026;52.600;4.694;2024-03-08T01:47:41;101898.97;;;1.92;96.18
62725;BME280;49026;52.600;4.694;2024-03-08T01:50:07;101883.44;;;1.93;95.55
62725;BME280;49026;52.600;4.694;2024-03-08T01:52:35;101880.91;;;1.98;94.21
62725;BME280;49026;52.600;4.694;2024-03-08T01:55:02;101881.81;;;2.00;92.83
62725;BME280;49026;52.600;4.694;2024-03-08T01:57:32;101875.72;;;1.96;92.44
62725;BME280;49026;52.600;4.694;2024-03-08T01:59:59;101867.91;;;1.93;92.55
62725;BME280;49026;52.600;4.694;2024-03-08T02:02:30;101871.41;;;1.98;90.86
62725;BME280;49026;52.600;4.694;2024-03-08T02:04:57;101870.53;;;1.96;91.03
62725;BME280;49026;52.600;4.694;2024-03-08T02:07:22;101872.31;;;1.99;90.76
62725;BME280;49026;52.600;4.694;2024-03-08T02:09:47;101860.16;;;1.96;89.77
62725;BME280;49026;52.600;4.694;2024-03-08T02:12:13;101861.81;;;1.90;90.22
62725;BME280;49026;52.600;4.694;2024-03-08T02:14:38;101864.41;;;1.90;90.03
62725;BME280;49026;52.600;4.694;2024-03-08T02:17:05;101856.59;;;1.88;90.61
62725;BME280;49026;52.600;4.694;2024-03-08T02:19:30;101866.94;;;1.85;89.69
62725;BME280;49026;52.600;4.694;2024-03-08T02:21:58;101865.94;;;1.72;91.42
62725;BME280;49026;52.600;4.694;2024-03-08T02:24:24;101856.41;;;1.71;91.02
62725;BME280;49026;52.600;4.694;2024-03-08T02:26:50;101857.28;;;1.73;91.14
62725;BME280;49026;52.600;4.694;2024-03-08T02:29:16;101855.56;;;1.72;91.18
62725;BME280;49026;52.600;4.694;2024-03-08T02:31:41;101848.59;;;1.68;91.21
62725;BME280;49026;52.600;4.694;2024-03-08T02:34:07;101845.16;;;1.69;91.46
62725;BME280;49026;52.600;4.694;2024-03-08T02:36:32;101844.25;;;1.69;91.34
62725;BME280;49026;52.600;4.694;2024-03-08T02:39:02;101837.28;;;1.63;92.13
62725;BME280;49026;52.600;4.694;2024-03-08T02:41:27;101836.41;;;1.61;92.72
62725;BME280;49026;52.600;4.694;2024-03-08T02:43:52;101829.50;;;1.63;91.83
62725;BME280;49026;52.600;4.694;2024-03-08T02:46:20;101828.66;;;1.62;92.08
62725;BME280;49026;52.600;4.694;2024-03-08T02:48:45;101816.53;;;1.61;91.29
62725;BME280;49026;52.600;4.694;2024-03-08T02:51:12;101816.50;;;1.58;91.81
62725;BME280;49026;52.600;4.694;2024-03-08T02:53:38;101822.56;;;1.57;91.77
62725;BME280;49026;52.600;4.694;2024-03-08T02:56:08;101813.88;;;1.57;93.13
62725;BME280;49026;52.600;4.694;2024-03-08T02:58:38;101801.00;;;1.61;92.84
62725;BME280;49026;52.600;4.694;2024-03-08T03:01:03;101800.97;;;1.60;93.30
62725;BME280;49026;52.600;4.694;2024-03-08T03:03:28;101794.06;;;1.60;92.28
62725;BME280;49026;52.600;4.694;2024-03-08T03:05:53;101795.78;;;1.58;92.10
62725;BME280;49026;52.600;4.694;2024-03-08T03:08:21;101800.88;;;1.54;93.60
62725;BME280;49026;52.600;4.694;2024-03-08T03:10:47;101796.56;;;1.53;92.99
62725;BME280;49026;52.600;4.694;2024-03-08T03:13:12;101795.72;;;1.54;92.07
62725;BME280;49026;52.600;4.694;2024-03-08T03:15:40;101781.06;;;1.56;92.80
62725;BME280;49026;52.600;4.694;2024-03-08T03:18:08;101781.06;;;1.56;92.25
62725;BME280;49026;52.600;4.694;2024-03-08T03:20:33;101775.00;;;1.52;91.43
62725;BME280;49026;52.600;4.694;2024-03-08T03:23:05;101770.63;;;1.50;92.56
62725;BME280;49026;52.600;4.694;2024-03-08T03:25:33;101772.38;;;1.49;93.23
62725;BME280;49026;52.600;4.694;2024-03-08T03:28:02;101773.19;;;1.48;92.32
62725;BME280;49026;52.600;4.694;2024-03-08T03:30:27;101775.72;;;1.43;93.03
62725;BME280;49026;52.600;4.694;2024-03-08T03:32:57;101758.47;;;1.42;92.19
62725;BME280;49026;52.600;4.694;2024-03-08T03:35:26;101773.97;;;1.39;93.53
62725;BME280;49026;52.600;4.694;2024-03-08T03:37:51;101768.75;;;1.36;92.77
62725;BME280;49026;52.600;4.694;2024-03-08T03:40:28;101769.56;;;1.32;93.74
62725;BME280;49026;52.600;4.694;2024-03-08T03:42:54;101759.19;;;1.31;93.51
62725;BME280;49026;52.600;4.694;2024-03-08T03:45:19;101766.03;;;1.28;94.11
62725;BME280;49026;52.600;4.694;2024-03-08T03:47:45;101758.28;;;1.30;93.77
62725;BME280;49026;52.600;4.694;2024-03-08T03:50:11;101762.56;;;1.26;93.98
62725;BME280;49026;52.600;4.694;2024-03-08T03:52:36;101755.66;;;1.25;94.31
62725;BME280;49026;52.600;4.694;2024-03-08T03:55:01;101762.53;;;1.25;94.20
62725;BME280;49026;52.600;4.694;2024-03-08T03:57:27;101758.16;;;1.18;93.76
62725;BME280;49026;52.600;4.694;2024-03-08T03:59:54;101746.00;;;1.14;93.49
62725;BME280;49026;52.600;4.694;2024-03-08T04:02:19;101744.16;;;1.05;94.48
62725;BME280;49026;52.600;4.694;2024-03-08T04:04:46;101760.56;;;1.07;94.85
62725;BME280;49026;52.600;4.694;2024-03-08T04:07:13;101752.81;;;1.05;94.47
62725;BME280;49026;52.600;4.694;2024-03-08T04:09:41;101751.88;;;1.02;95.06
62725;BME280;49026;52.600;4.694;2024-03-08T04:12:09;101747.53;;;0.99;95.84
62725;BME280;49026;52.600;4.694;2024-03-08T04:14:35;101744.09;;;1.00;96.80
62725;BME280;49026;52.600;4.694;2024-03-08T04:17:00;101745.75;;;0.97;95.92
62725;BME280;49026;52.600;4.694;2024-03-08T04:19:26;101749.25;;;0.97;95.51
62725;BME280;49026;52.600;4.694;2024-03-08T04:21:54;101738.00;;;0.97;95.05
62725;BME280;49026;52.600;4.694;2024-03-08T04:24:19;101732.75;;;0.90;96.76
62725;BME280;49026;52.600;4.694;2024-03-08T04:26:46;101735.38;;;0.95;96.24
62725;BME280;49026;52.600;4.694;2024-03-08T04:29:11;101730.25;;;0.98;95.50
62725;BME280;49026;52.600;4.694;2024-03-08T04:31:39;101730.22;;;0.95;95.34
62725;BME280;49026;52.600;4.694;2024-03-08T04:34:05;101723.38;;;0.99;95.06
62725;BME280;49026;52.600;4.694;2024-03-08T04:36:30;101725.03;;;0.92;95.33
62725;BME280;49026;52.600;4.694;2024-03-08T04:38:55;101732.00;;;0.99;95.52
62725;BME280;49026;52.600;4.694;2024-03-08T04:41:21;101725.94;;;0.96;95.19
62725;BME280;49026;52.600;4.694;2024-03-08T04:43:48;101732.00;;;0.99;94.71
62725;BME280;49026;52.600;4.694;2024-03-08T04:46:13;101730.22;;;0.95;95.11
62725;BME280;49026;52.600;4.694;2024-03-08T04:48:39;101723.31;;;0.94;94.58
62725;BME280;49026;52.600;4.694;2024-03-08T04:51:07;101719.84;;;0.95;95.00
62725;BME280;49026;52.600;4.694;2024-03-08T04:53:41;101726.78;;;0.96;94.35
62725;BME280;49026;52.600;4.694;2024-03-08T04:56:06;101724.13;;;0.91;93.63
62725;BME280;49026;52.600;4.694;2024-03-08T04:58:35;101721.47;;;0.84;94.54
62725;BME280;49026;52.600;4.694;2024-03-08T05:01:01;101719.59;;;0.77;95.81
62725;BME280;49026;52.600;4.694;2024-03-08T05:03:26;101721.31;;;0.74;95.64
62725;BME280;49026;52.600;4.694;2024-03-08T05:05:52;101723.84;;;0.71;96.09
62725;BME280;49026;52.600;4.694;2024-03-08T05:08:18;101716.94;;;0.69;96.32
62725;BME280;49026;52.600;4.694;2024-03-08T05:10:45;101717.81;;;0.71;95.76
62725;BME280;49026;52.600;4.694;2024-03-08T05:13:11;101710.91;;;0.71;96.26
62725;BME280;49026;52.600;4.694;2024-03-08T05:15:38;101712.63;;;0.69;95.61
62725;BME280;49026;52.600;4.694;2024-03-08T05:18:04;101713.44;;;0.68;96.10
62725;BME280;49026;52.600;4.694;2024-03-08T05:20:29;101708.25;;;0.65;96.67
62725;BME280;49026;52.600;4.694;2024-03-08T05:22:56;101710.00;;;0.68;96.70
62725;BME280;49026;52.600;4.694;2024-03-08T05:25:26;101699.72;;;0.72;95.61
62725;BME280;49026;52.600;4.694;2024-03-08T05:27:52;101705.75;;;0.71;95.39
62725;BME280;49026;52.600;4.694;2024-03-08T05:30:23;101703.19;;;0.74;95.12
62725;BME280;49026;52.600;4.694;2024-03-08T05:32:48;101705.75;;;0.73;95.20
62725;BME280;49026;52.600;4.694;2024-03-08T05:35:15;101707.47;;;0.71;96.07
62725;BME280;49026;52.600;4.694;2024-03-08T05:37:41;101703.19;;;0.73;96.00
62725;BME280;49026;52.600;4.694;2024-03-08T05:40:13;101700.63;;;0.74;95.42
62725;BME280;49026;52.600;4.694;2024-03-08T05:42:40;101697.13;;;0.72;95.75
62725;BME280;49026;52.600;4.694;2024-03-08T05:45:06;101700.56;;;0.71;95.79
62725;BME280;49026;52.600;4.694;2024-03-08T05:47:32;101698.88;;;0.72;95.29
62725;BME280;49026;52.600;4.694;2024-03-08T05:50:00;101699.66;;;0.68;95.19
62725;BME280;49026;52.600;4.694;2024-03-08T05:52:25;101695.34;;;0.68;94.97
62725;BME280;49026;52.600;4.694;2024-03-08T05:55:00;101699.59;;;0.65;95.53
62725;BME280;49026;52.600;4.694;2024-03-08T05:57:25;101694.44;;;0.65;96.28
62725;BME280;49026;52.600;4.694;2024-03-08T05:59:51;101702.25;;;0.69;95.72
62725;BME280;49026;52.600;4.694;2024-03-08T06:02:17;101697.94;;;0.68;95.06
62725;BME280;49026;52.600;4.694;2024-03-08T06:04:48;101692.69;;;0.62;95.62
62725;BME280;49026;52.600;4.694;2024-03-08T06:07:15;101701.38;;;0.67;95.28
62725;BME280;49026;52.600;4.694;2024-03-08T06:09:42;101692.72;;;0.67;94.68
62725;BME280;49026;52.600;4.694;2024-03-08T06:12:11;101685.84;;;0.66;94.88
62725;BME280;49026;52.600;4.694;2024-03-08T06:14:36;101690.94;;;0.61;95.51
62725;BME280;49026;52.600;4.694;2024-03-08T06:17:02;101677.22;;;0.65;95.57
62725;BME280;49026;52.600;4.694;2024-03-08T06:19:27;101685.88;;;0.69;95.64
62725;BME280;49026;52.600;4.694;2024-03-08T06:21:52;101678.94;;;0.66;94.91
62725;BME280;49026;52.600;4.694;2024-03-08T06:24:18;101675.59;;;0.75;94.69
62725;BME280;49026;52.600;4.694;2024-03-08T06:26:46;101690.22;;;0.71;94.71
62725;BME280;49026;52.600;4.694;2024-03-08T06:29:11;101680.75;;;0.72;94.96
62725;BME280;49026;52.600;4.694;2024-03-08T06:31:37;101684.19;;;0.71;95.18
62725;BME280;49026;52.600;4.694;2024-03-08T06:34:04;101679.06;;;0.76;95.35
62725;BME280;49026;52.600;4.694;2024-03-08T06:36:32;101687.69;;;0.76;95.25
62725;BME280;49026;52.600;4.694;2024-03-08T06:38:58;101673.09;;;0.80;94.66
62725;BME280;49026;52.600;4.694;2024-03-08T06:41:26;101668.84;;;0.85;95.17
62725;BME280;49026;52.600;4.694;2024-03-08T06:43:52;101667.16;;;0.88;95.18
62725;BME280;49026;52.600;4.694;2024-03-08T06:46:22;101667.25;;;0.96;94.71
62725;BME280;49026;52.600;4.694;2024-03-08T06:48:47;101664.78;;;1.04;94.61
62725;BME280;49026;52.600;4.694;2024-03-08T06:51:17;101671.78;;;1.13;93.82
62725;BME280;49026;52.600;4.694;2024-03-08T06:53:45;101669.28;;;1.22;93.93
62725;BME280;49026;52.600;4.694;2024-03-08T06:56:10;101661.53;;;1.23;94.00
62725;BME280;49026;52.600;4.694;2024-03-08T06:58:35;101663.38;;;1.34;93.07
62725;BME280;49026;52.600;4.694;2024-03-08T07:01:01;101667.78;;;1.39;93.87
62725;BME280;49026;52.600;4.694;2024-03-08T07:03:36;101672.16;;;1.46;92.83
62725;BME280;49026;52.600;4.694;2024-03-08T07:06:01;101669.69;;;1.57;93.11
62725;BME280;49026;52.600;4.694;2024-03-08T07:08:27;101668.03;;;1.67;92.43
62725;BME280;49026;52.600;4.694;2024-03-08T07:10:53;101667.31;;;1.77;92.18
62725;BME280;49026;52.600;4.694;2024-03-08T07:13:19;101670.00;;;1.90;91.17
62725;BME280;49026;52.600;4.694;2024-03-08T07:15:44;101664.88;;;1.96;89.65
62725;BME280;49026;52.600;4.694;2024-03-08T07:18:13;101666.72;;;2.09;89.84
62725;BME280;49026;52.600;4.694;2024-03-08T07:20:41;101661.59;;;2.18;89.90
62725;BME280;49026;52.600;4.694;2024-03-08T07:23:07;101657.34;;;2.28;89.39
62725;BME280;49026;52.600;4.694;2024-03-08T07:25:36;101657.44;;;2.37;88.64
62725;BME280;49026;52.600;4.694;2024-03-08T07:28:03;101650.53;;;2.47;86.48
62725;BME280;49026;52.600;4.694;2024-03-08T07:30:29;101651.47;;;2.51;86.15
62725;BME280;49026;52.600;4.694;2024-03-08T07:33:15;101648.06;;;2.64;85.79
62725;BME280;49026;52.600;4.694;2024-03-08T07:35:48;101647.25;;;2.73;85.07
62725;BME280;49026;52.600;4.694;2024-03-08T07:38:15;101650.75;;;2.87;84.15
62725;BME280;49026;52.600;4.694;2024-03-08T07:40:41;101653.44;;;3.03;84.64
62725;BME280;49026;52.600;4.694;2024-03-08T07:43:10;101646.56;;;3.15;83.61
62725;BME280;49026;52.600;4.694;2024-03-08T07:45:45;101644.84;;;3.25;82.93
62725;BME280;49026;52.600;4.694;2024-03-08T07:48:10;101645.75;;;3.37;81.05
62725;BME280;49026;52.600;4.694;2024-03-08T07:50:39;101631.06;;;3.43;81.63
62725;BME280;49026;52.600;4.694;2024-03-08T07:53:05;101634.50;;;3.42;80.89
62725;BME280;49026;52.600;4.694;2024-03-08T07:55:36;101631.94;;;3.61;81.31
62725;BME280;49026;52.600;4.694;2024-03-08T07:58:07;101623.28;;;3.79;80.30
62725;BME280;49026;52.600;4.694;2024-03-08T08:00:35;101621.56;;;3.90;77.88
62725;BME280;49026;52.600;4.694;2024-03-08T08:03:04;101614.66;;;4.03;78.41
62725;BME280;49026;52.600;4.694;2024-03-08T08:05:30;101616.38;;;4.12;76.70
62725;BME280;49026;52.600;4.694;2024-03-08T08:07:57;101611.13;;;4.30;78.94
62725;BME280;49026;52.600;4.694;2024-03-08T08:10:25;101616.28;;;4.49;78.71
62725;BME280;49026;52.600;4.694;2024-03-08T08:12:51;101605.00;;;4.57;75.57
62725;BME280;49026;52.600;4.694;2024-03-08T08:15:20;101609.28;;;4.71;75.67
62725;BME280;49026;52.600;4.694;2024-03-08T08:17:45;101613.56;;;4.89;75.23
62725;BME280;49026;52.600;4.694;2024-03-08T08:20:12;101601.38;;;4.98;73.63
62725;BME280;49026;52.600;4.694;2024-03-08T08:22:39;101610.88;;;5.04;72.50
62725;BME280;49026;52.600;4.694;2024-03-08T08:25:13;101604.81;;;5.00;70.83
62725;BME280;49026;52.600;4.694;2024-03-08T08:27:42;101603.13;;;4.96;71.45
62725;BME280;49026;52.600;4.694;2024-03-08T08:30:08;101591.78;;;5.02;72.27
62725;BME280;49026;52.600;4.694;2024-03-08T08:32:35;101591.75;;;5.13;70.16
62725;BME280;49026;52.600;4.694;2024-03-08T08:35:05;101594.28;;;5.27;71.35
62725;BME280;49026;52.600;4.694;2024-03-08T08:37:31;101592.47;;;5.38;70.34
62725;BME280;49026;52.600;4.694;2024-03-08T08:39:57;101596.78;;;5.39;69.50
62725;BME280;49026;52.600;4.694;2024-03-08T08:42:23;101596.81;;;5.36;69.79
62725;BME280;49026;52.600;4.694;2024-03-08T08:44:48;101594.97;;;5.50;70.03
62725;BME280;49026;52.600;4.694;2024-03-08T08:47:18;101583.47;;;5.76;67.68
62725;BME280;49026;52.600;4.694;2024-03-08T08:49:44;101582.56;;;5.82;71.22
62725;BME280;49026;52.600;4.694;2024-03-08T08:52:12;101579.03;;;5.90;67.89
62725;BME280;49026;52.600;4.694;2024-03-08T08:54:38;101568.50;;;6.03;67.08
62725;BME280;49026;52.600;4.694;2024-03-08T08:57:03;101576.31;;;6.04;66.31
62725;BME280;49026;52.600;4.694;2024-03-08T08:59:36;101573.72;;;6.03;67.19
62725;BME280;49026;52.600;4.694;2024-03-08T09:02:02;101560.75;;;5.90;66.70
62725;BME280;49026;52.600;4.694;2024-03-08T09:04:29;101564.16;;;6.03;67.08
62725;BME280;49026;52.600;4.694;2024-03-08T09:06:54;101564.91;;;6.13;67.61
62725;BME280;49026;52.600;4.694;2024-03-08T09:09:22;101563.00;;;6.32;65.59
62725;BME280;49026;52.600;4.694;2024-03-08T09:11:47;101557.53;;;6.52;66.63
62725;BME280;49026;52.600;4.694;2024-03-08T09:14:13;101545.31;;;6.54;65.29
62725;BME280;49026;52.600;4.694;2024-03-08T09:16:39;101560.03;;;6.61;64.09
62725;BME280;49026;52.600;4.694;2024-03-08T09:19:04;101545.16;;;6.66;64.66
62725;BME280;49026;52.600;4.694;2024-03-08T09:21:32;101542.47;;;6.73;67.29
62725;BME280;49026;52.600;4.694;2024-03-08T09:23:57;101532.75;;;6.84;64.11
62725;BME280;49026;52.600;4.694;2024-03-08T09:26:23;101531.91;;;6.83;64.16
62725;BME280;49026;52.600;4.694;2024-03-08T09:28:51;101523.81;;;7.00;63.52
62725;BME280;49026;52.600;4.694;2024-03-08T09:31:19;101529.84;;;7.05;64.25
62725;BME280;49026;52.600;4.694;2024-03-08T09:33:45;101520.19;;;7.11;63.08
62725;BME280;49026;52.600;4.694;2024-03-08T09:36:13;101520.16;;;7.12;64.36
62725;BME280;49026;52.600;4.694;2024-03-08T09:38:41;101516.47;;;7.27;63.83
62725;BME280;49026;52.600;4.694;2024-03-08T09:41:09;101498.56;;;7.55;62.94
62725;BME280;49026;52.600;4.694;2024-03-08T09:43:35;101498.44;;;7.61;61.66
62725;BME280;49026;52.600;4.694;2024-03-08T09:46:01;101492.25;;;7.67;61.12
62725;BME280;49026;52.600;4.694;2024-03-08T09:48:28;101493.25;;;7.60;60.83
62725;BME280;49026;52.600;4.694;2024-03-08T09:50:55;101478.84;;;7.36;60.26
62725;BME280;49026;52.600;4.694;2024-03-08T09:53:23;101475.16;;;7.48;62.19
62725;BME280;49026;52.600;4.694;2024-03-08T09:55:56;101473.81;;;7.73;62.00
62725;BME280;49026;52.600;4.694;2024-03-08T09:58:22;101470.16;;;7.84;60.77
62725;BME280;49026;52.600;4.694;2024-03-08T10:01:07;101472.53;;;7.96;61.72
62725;BME280;49026;52.600;4.694;2024-03-08T10:03:32;101473.03;;;8.15;58.37
62725;BME280;49026;52.600;4.694;2024-03-08T10:05:58;101462.81;;;8.03;61.11
62725;BME280;49026;52.600;4.694;2024-03-08T10:08:27;101470.28;;;8.23;59.88
62725;BME280;49026;52.600;4.694;2024-03-08T10:10:55;101469.91;;;8.43;60.51
62725;BME280;49026;52.600;4.694;2024-03-08T10:13:20;101453.31;;;8.42;58.14
62725;BME280;49026;52.600;4.694;2024-03-08T10:15:46;101470.94;;;8.34;57.93
62725;BME280;49026;52.600;4.694;2024-03-08T10:18:15;101453.31;;;7.98;59.62
62725;BME280;49026;52.600;4.694;2024-03-08T10:20:41;101462.94;;;7.96;60.68
62725;BME280;49026;52.600;4.694;2024-03-08T10:23:08;101450.38;;;7.69;61.42
62725;BME280;49026;52.600;4.694;2024-03-08T10:25:37;101441.47;;;7.31;63.64
62725;BME280;49026;52.600;4.694;2024-03-08T10:28:12;101443.34;;;7.21;64.85
62725;BME280;49026;52.600;4.694;2024-03-08T10:30:37;101440.44;;;7.88;61.96
62725;BME280;49026;52.600;4.694;2024-03-08T10:33:03;101446.28;;;8.44;61.80
62725;BME280;49026;52.600;4.694;2024-03-08T10:35:30;101430.50;;;8.86;62.74
62725;BME280;49026;52.600;4.694;2024-03-08T10:37:57;101434.09;;;9.18;58.46
62725;BME280;49026;52.600;4.694;2024-03-08T10:40:30;101422.53;;;8.91;58.02
62725;BME280;49026;52.600;4.694;2024-03-08T10:43:00;101420.19;;;9.16;57.66
62725;BME280;49026;52.600;4.694;2024-03-08T10:45:35;101414.22;;;9.44;57.44
62725;BME280;49026;52.600;4.694;2024-03-08T10:50:36;101408.88;;;9.80;55.68
62725;BME280;49026;52.600;4.694;2024-03-08T10:53:08;101404.13;;;9.94;56.14
62725;BME280;49026;52.600;4.694;2024-03-08T10:55:36;101385.88;;;9.90;56.25
62725;BME280;49026;52.600;4.694;2024-03-08T10:58:02;101382.53;;;9.52;55.66
62725;BME280;49026;52.600;4.694;2024-03-08T11:00:27;101378.47;;;9.40;58.26
62725;BME280;49026;52.600;4.694;2024-03-08T11:03:01;101385.78;;;9.61;56.17
62725;BME280;49026;52.600;4.694;2024-03-08T11:05:38;101381.16;;;9.70;56.73
62725;BME280;49026;52.600;4.694;2024-03-08T11:08:20;101387.34;;;9.98;55.99
62725;BME280;49026;52.600;4.694;2024-03-08T11:10:52;101369.06;;;9.66;57.07
62725;BME280;49026;52.600;4.694;2024-03-08T11:16:02;101356.63;;;9.72;55.17
62725;BME280;49026;52.600;4.694;2024-03-08T11:18:33;101360.78;;;9.79;57.17
62725;BME280;49026;52.600;4.694;2024-03-08T11:21:03;101357.53;;;10.01;57.34
62725;BME280;49026;52.600;4.694;2024-03-08T11:23:32;101352.41;;;9.96;56.23
62725;BME280;49026;52.600;4.694;2024-03-08T11:25:59;101344.16;;;10.09;57.53
62725;BME280;49026;52.600;4.694;2024-03-08T11:28:25;101334.66;;;10.05;54.32
62725;BME280;49026;52.600;4.694;2024-03-08T11:33:27;101326.50;;;10.14;54.80
62725;BME280;49026;52.600;4.694;2024-03-08T11:36:10;101324.28;;;10.30;57.78
62725;BME280;49026;52.600;4.694;2024-03-08T11:38:42;101303.16;;;10.34;56.65
62725;BME280;49026;52.600;4.694;2024-03-08T11:41:09;101326.81;;;10.61;55.23
62725;BME280;49026;52.600;4.694;2024-03-08T11:43:40;101310.22;;;10.86;56.38
62725;BME280;49026;52.600;4.694;2024-03-08T11:46:10;101294.25;;;10.92;51.81
62725;BME280;49026;52.600;4.694;2024-03-08T11:48:39;101301.13;;;10.96;56.18
62725;BME280;49026;52.600;4.694;2024-03-08T11:51:04;101296.13;;;11.13;61.56
62725;BME280;49026;52.600;4.694;2024-03-08T11:53:32;101283.31;;;11.29;55.21
62725;BME280;49026;52.600;4.694;2024-03-08T11:56:16;101278.09;;;11.52;55.28
62725;BME280;49026;52.600;4.694;2024-03-08T11:58:41;101266.25;;;11.40;56.63
62725;BME280;49026;52.600;4.694;2024-03-08T12:01:08;101259.84;;;11.23;55.05
62725;BME280;49026;52.600;4.694;2024-03-08T12:03:53;101257.50;;;11.39;54.62
62725;BME280;49026;52.600;4.694;2024-03-08T12:06:19;101262.25;;;11.29;51.79
62725;BME280;49026;52.600;4.694;2024-03-08T12:08:46;101260.41;;;11.08;51.28
62725;BME280;49026;52.600;4.694;2024-03-08T12:11:14;101259.47;;;11.09;54.78
62725;BME280;49026;52.600;4.694;2024-03-08T12:13:41;101243.78;;;11.31;57.80
62725;BME280;49026;52.600;4.694;2024-03-08T12:16:06;101246.75;;;11.45;52.45
62725;BME280;49026;52.600;4.694;2024-03-08T12:18:34;101239.78;;;11.44;55.75
62725;BME280;49026;52.600;4.694;2024-03-08T12:21:06;101229.34;;;11.65;58.06
62725;BME280;49026;52.600;4.694;2024-03-08T12:24:05;101221.09;;;11.74;50.31
62725;BME280;49026;52.600;4.694;2024-03-08T12:26:37;101211.03;;;11.62;50.62
62725;BME280;49026;52.600;4.694;2024-03-08T12:31:51;101206.03;;;11.32;53.95
62725;BME280;49026;52.600;4.694;2024-03-08T12:34:18;101180.72;;;11.52;52.01
62725;BME280;49026;52.600;4.694;2024-03-08T12:36:50;101182.09;;;11.62;55.29
62725;BME280;49026;52.600;4.694;2024-03-08T12:39:19;101182.44;;;11.98;49.08
62725;BME280;49026;52.600;4.694;2024-03-08T12:41:48;101184.00;;;11.80;50.77
62725;BME280;49026;52.600;4.694;2024-03-08T12:44:17;101178.59;;;11.61;52.30
62725;BME280;49026;52.600;4.694;2024-03-08T12:46:44;101164.81;;;11.55;49.41
62725;BME280;49026;52.600;4.694;2024-03-08T12:49:10;101165.72;;;11.54;52.59
62725;BME280;49026;52.600;4.694;2024-03-08T12:51:36;101161.09;;;11.60;56.00
62725;BME280;49026;52.600;4.694;2024-03-08T12:54:03;101161.25;;;11.56;50.85
62725;BME280;49026;52.600;4.694;2024-03-08T12:56:31;101162.59;;;11.66;51.35
62725;BME280;49026;52.600;4.694;2024-03-08T12:59:00;101135.69;;;11.81;49.33
62725;BME280;49026;52.600;4.694;2024-03-08T13:01:27;101156.56;;;11.64;49.65
62725;BME280;49026;52.600;4.694;2024-03-08T13:03:53;101164.78;;;11.78;53.64
62725;BME280;49026;52.600;4.694;2024-03-08T13:06:21;101144.19;;;11.66;52.68
62725;BME280;49026;52.600;4.694;2024-03-08T13:08:50;101155.81;;;11.38;51.08
62725;BME280;49026;52.600;4.694;2024-03-08T13:11:15;101145.63;;;11.29;49.81